Time;durP1;ratioP1;P1;durP2;ratioP2;P2;SDS_P1;SDS_P2;PMS_P1;PMS_P2;Temp;Humidity;BMP_temperature;BMP_pressure;BME280_temperature;BME280_humidity;BME280_pressure;Samples;Min_cycle;Max_cycle;Signal;HPM_P1;HPM_P2
2022/02/15 00:00:12;;;;;;;1.13;0.70;;;10.30;99.90;;;;;;5091626;28;20107;-83
2022/02/15 00:02:38;;;;;;;1.05;0.77;;;10.20;99.90;;;;;;5091530;28;20028;-83
2022/02/15 00:05:04;;;;;;;1.35;1.00;;;10.20;99.90;;;;;;5092790;28;20073;-83
2022/02/15 00:07:29;;;;;;;1.10;0.95;;;10.20;99.90;;;;;;5091700;28;20028;-82
2022/02/15 00:09:55;;;;;;;1.38;1.00;;;10.10;99.90;;;;;;5092712;28;20036;-83
2022/02/15 00:12:21;;;;;;;1.85;0.93;;;10.10;99.90;;;;;;5092661;28;20387;-82
2022/02/15 00:14:46;;;;;;;1.83;0.85;;;10.10;99.90;;;;;;5091456;28;20391;-83
2022/02/15 00:17:12;;;;;;;1.65;0.77;;;10.10;99.90;;;;;;5091474;28;20384;-83
2022/02/15 00:19:38;;;;;;;1.27;0.80;;;10.10;99.90;;;;;;5091445;28;20452;-83
2022/02/15 00:22:04;;;;;;;2.38;0.80;;;10.00;99.90;;;;;;5091413;28;20112;-83
2022/02/15 00:24:30;;;;;;;1.75;0.98;;;10.00;99.90;;;;;;5094002;28;20507;-83
2022/02/15 00:26:55;;;;;;;1.10;0.77;;;10.00;99.90;;;;;;5096370;28;20028;-83
2022/02/15 00:29:21;;;;;;;1.10;0.80;;;10.00;99.90;;;;;;5095028;28;20035;-83
2022/02/15 00:31:46;;;;;;;1.83;0.90;;;10.00;99.90;;;;;;5094931;28;20031;-83
2022/02/15 00:34:12;;;;;;;2.10;0.93;;;9.90;99.90;;;;;;5094950;28;20021;-83
2022/02/15 00:36:38;;;;;;;1.58;1.20;;;9.90;99.90;;;;;;5096174;28;20074;-82
2022/02/15 00:39:04;;;;;;;1.10;0.80;;;9.90;99.90;;;;;;5094690;28;20101;-83
2022/02/15 00:41:29;;;;;;;2.30;1.10;;;9.90;99.90;;;;;;5094824;28;20027;-83
2022/02/15 00:43:55;;;;;;;2.63;1.02;;;9.80;99.90;;;;;;5094788;28;20032;-83
2022/02/15 00:46:21;;;;;;;1.90;1.08;;;9.80;99.90;;;;;;5094775;28;20028;-83
2022/02/15 00:48:46;;;;;;;1.52;0.80;;;9.80;99.90;;;;;;5094688;28;20115;-82
2022/02/15 00:51:12;;;;;;;1.40;0.93;;;9.80;99.90;;;;;;5095840;28;20020;-83
2022/02/15 00:53:38;;;;;;;1.27;1.10;;;9.70;99.90;;;;;;5094620;28;20111;-83
2022/02/15 00:56:04;;;;;;;2.33;1.02;;;9.70;99.90;;;;;;5094553;28;20020;-83
2022/02/15 00:58:30;;;;;;;4.55;1.42;;;9.70;99.90;;;;;;5094457;28;20051;-83
2022/02/15 01:00:55;;;;;;;2.22;1.20;;;9.60;99.90;;;;;;5094450;28;20139;-83
2022/02/15 01:03:21;;;;;;;2.95;1.30;;;9.60;99.90;;;;;;5094461;28;20028;-83
2022/02/15 01:05:47;;;;;;;3.38;1.00;;;9.60;99.90;;;;;;5094220;28;20031;-83
2022/02/15 01:08:13;;;;;;;1.25;1.02;;;9.60;99.90;;;;;;5094281;28;20024;-83
2022/02/15 01:10:40;;;;;;;2.15;1.08;;;9.50;99.90;;;;;;5095566;28;20127;-82
2022/02/15 01:13:05;;;;;;;2.55;0.93;;;9.50;99.90;;;;;;5094106;28;20118;-83
2022/02/15 01:15:31;;;;;;;1.50;1.05;;;9.50;99.90;;;;;;5094150;28;20047;-83
2022/02/15 01:17:57;;;;;;;3.03;1.15;;;9.50;99.90;;;;;;5095394;28;20017;-83
2022/02/15 01:20:23;;;;;;;1.38;0.98;;;9.40;99.90;;;;;;5094067;28;20027;-82
2022/02/15 01:22:49;;;;;;;1.42;1.00;;;9.40;99.90;;;;;;5095295;28;20407;-83
2022/02/15 01:25:14;;;;;;;1.60;0.93;;;9.40;99.90;;;;;;5093939;28;20073;-82
2022/02/15 01:27:40;;;;;;;1.30;1.10;;;9.40;99.90;;;;;;5093913;28;20024;-82
2022/02/15 01:30:07;;;;;;;2.50;1.15;;;9.40;99.90;;;;;;5093793;28;20464;-82
2022/02/15 01:32:32;;;;;;;1.42;0.95;;;9.30;99.90;;;;;;5093811;28;20377;-83
2022/02/15 01:34:58;;;;;;;2.05;1.10;;;9.30;99.90;;;;;;5092793;28;20103;-83
2022/02/15 01:37:24;;;;;;;1.75;1.00;;;9.30;99.90;;;;;;5093561;28;20373;-82
2022/02/15 01:39:49;;;;;;;1.45;1.17;;;9.30;99.90;;;;;;5093714;28;20027;-83
2022/02/15 01:42:19;;;;;;;2.55;1.17;;;9.30;99.90;;;;;;5093642;28;20444;-82
2022/02/15 01:44:45;;;;;;;1.98;0.93;;;9.30;99.90;;;;;;5093623;28;20024;-83
2022/02/15 01:47:22;;;;;;;2.72;1.20;;;9.20;99.90;;;;;;5093529;28;20054;-83
2022/02/15 01:49:47;;;;;;;3.38;1.15;;;9.20;99.90;;;;;;5093483;28;20024;-83
2022/02/15 01:52:13;;;;;;;2.00;1.10;;;9.20;99.90;;;;;;5093402;28;20081;-83
2022/02/15 01:54:39;;;;;;;1.85;1.00;;;9.20;99.90;;;;;;5093394;28;20020;-82
2022/02/15 01:57:04;;;;;;;1.58;1.10;;;9.10;99.90;;;;;;5093378;28;20031;-82
2022/02/15 01:59:32;;;;;;;1.88;1.40;;;9.10;99.90;;;;;;5093435;28;20044;-83
2022/02/15 02:01:58;;;;;;;3.55;1.08;;;9.10;99.90;;;;;;5093283;28;20024;-82
2022/02/15 02:07:08;;;;;;;1.60;1.08;;;9.10;99.90;;;;;;5094696;28;20047;-82
2022/02/15 02:09:34;;;;;;;1.83;1.10;;;9.00;99.90;;;;;;5093107;28;20020;-82
2022/02/15 02:11:59;;;;;;;2.28;1.20;;;9.00;99.90;;;;;;5092994;28;20024;-83
2022/02/15 02:14:25;;;;;;;1.63;1.13;;;9.00;99.90;;;;;;5093026;28;20023;-83
2022/02/15 02:16:51;;;;;;;1.50;1.02;;;9.00;99.90;;;;;;5093008;28;20016;-83
2022/02/15 02:19:16;;;;;;;2.28;1.10;;;9.00;99.90;;;;;;5092920;28;20052;-83
2022/02/15 02:21:42;;;;;;;1.63;1.00;;;8.90;99.90;;;;;;5092936;28;20031;-82
2022/02/15 02:24:08;;;;;;;2.33;1.30;;;8.90;99.90;;;;;;5092939;28;20364;-82
2022/02/15 02:26:34;;;;;;;2.00;1.10;;;8.90;99.90;;;;;;5092851;28;20106;-83
2022/02/15 02:28:59;;;;;;;3.30;1.60;;;8.90;99.90;;;;;;5092792;28;20036;-82
2022/02/15 02:31:25;;;;;;;1.92;1.17;;;8.90;99.90;;;;;;5093920;28;20027;-82
2022/02/15 02:33:51;;;;;;;2.45;1.35;;;8.90;99.90;;;;;;5092677;28;20089;-82
2022/02/15 02:36:17;;;;;;;2.05;1.20;;;8.80;99.90;;;;;;5092640;28;20024;-83
2022/02/15 02:38:43;;;;;;;2.58;1.45;;;8.80;99.90;;;;;;5093707;28;20059;-83
2022/02/15 02:41:08;;;;;;;4.28;1.27;;;8.80;99.90;;;;;;5094030;28;20022;-83
2022/02/15 02:43:34;;;;;;;3.03;1.33;;;8.80;99.90;;;;;;5092538;28;20046;-83
2022/02/15 02:45:59;;;;;;;2.95;1.48;;;8.70;99.90;;;;;;5093113;28;20025;-83
2022/02/15 02:48:25;;;;;;;2.88;1.20;;;8.80;99.90;;;;;;5092440;28;20039;-83
2022/02/15 02:50:51;;;;;;;2.90;1.27;;;8.80;99.90;;;;;;5093656;28;20024;-83
2022/02/15 02:53:17;;;;;;;2.03;1.30;;;8.70;99.90;;;;;;5092233;28;20074;-83
2022/02/15 02:55:43;;;;;;;1.83;1.20;;;8.70;99.90;;;;;;5092544;28;20115;-82
2022/02/15 02:58:09;;;;;;;2.05;1.35;;;8.70;99.90;;;;;;5092360;28;20024;-82
2022/02/15 03:00:35;;;;;;;1.83;1.30;;;8.70;99.90;;;;;;5092246;28;20510;-82
2022/02/15 03:03:07;;;;;;;2.50;1.10;;;8.70;99.90;;;;;;5092504;28;20056;-82
2022/02/15 03:05:34;;;;;;;2.88;1.20;;;8.60;99.90;;;;;;5092156;28;20032;-82
2022/02/15 03:08:00;;;;;;;2.97;1.17;;;8.60;99.90;;;;;;5093671;28;20062;-83
2022/02/15 03:10:25;;;;;;;1.20;0.90;;;8.60;99.90;;;;;;5092118;28;20051;-82
2022/02/15 03:12:51;;;;;;;1.50;1.20;;;8.60;99.90;;;;;;5092013;28;20574;-83
2022/02/15 03:15:17;;;;;;;2.47;1.10;;;8.60;99.90;;;;;;5092006;28;20468;-83
2022/02/15 03:17:42;;;;;;;2.00;1.25;;;8.60;99.90;;;;;;5092024;28;20369;-83
2022/02/15 03:20:09;;;;;;;1.85;1.10;;;8.60;99.90;;;;;;5091933;28;20119;-83
2022/02/15 03:22:35;;;;;;;2.72;1.30;;;8.60;99.90;;;;;;5091967;28;20130;-83
2022/02/15 03:25:01;;;;;;;2.15;1.30;;;8.50;99.90;;;;;;5091904;28;20024;-83
2022/02/15 03:27:27;;;;;;;2.55;1.42;;;8.50;99.90;;;;;;5091916;28;20035;-82
2022/02/15 03:29:53;;;;;;;2.13;1.40;;;8.50;99.90;;;;;;5093171;28;20040;-83
2022/02/15 03:32:18;;;;;;;2.17;1.40;;;8.50;99.90;;;;;;5093103;28;20020;-82
2022/02/15 03:34:44;;;;;;;1.95;1.25;;;8.50;99.90;;;;;;5093125;28;20032;-82
2022/02/15 03:37:10;;;;;;;1.40;1.02;;;8.40;99.90;;;;;;5093146;28;20027;-83
2022/02/15 03:39:36;;;;;;;1.88;1.27;;;8.40;99.90;;;;;;5091821;28;20032;-82
2022/02/15 03:44:48;;;;;;;2.97;1.30;;;8.50;99.90;;;;;;5093606;28;20062;-82
2022/02/15 03:47:13;;;;;;;1.90;1.15;;;8.40;99.90;;;;;;5091756;28;20049;-83
2022/02/15 03:49:39;;;;;;;2.25;1.20;;;8.40;99.90;;;;;;5091698;28;20037;-83
2022/02/15 03:52:05;;;;;;;2.90;1.38;;;8.40;99.90;;;;;;5091575;28;20028;-83
2022/02/15 03:54:31;;;;;;;1.35;0.93;;;8.40;99.90;;;;;;5091590;28;20070;-82
2022/02/15 03:56:56;;;;;;;2.58;1.30;;;8.40;99.90;;;;;;5091666;28;20523;-82
2022/02/15 03:59:23;;;;;;;2.35;1.25;;;8.30;99.90;;;;;;5095476;28;20472;-83
2022/02/15 04:01:49;;;;;;;2.35;1.35;;;8.40;99.90;;;;;;5095595;28;20028;-82
2022/02/15 04:04:14;;;;;;;3.35;1.20;;;8.30;99.90;;;;;;5095509;28;20036;-83
2022/02/15 04:06:40;;;;;;;2.55;1.38;;;8.30;99.90;;;;;;5096702;28;20059;-83
2022/02/15 04:09:06;;;;;;;4.55;1.23;;;8.30;99.90;;;;;;5095427;28;20031;-83
2022/02/15 04:11:32;;;;;;;1.73;1.10;;;8.30;99.90;;;;;;5095303;28;20142;-83
2022/02/15 04:13:58;;;;;;;2.17;1.10;;;8.30;99.90;;;;;;5095415;28;20475;-83
2022/02/15 04:16:24;;;;;;;2.45;1.45;;;8.30;99.90;;;;;;5095350;28;20395;-83
2022/02/15 04:18:50;;;;;;;1.65;1.08;;;8.30;99.90;;;;;;5095316;28;20024;-82
2022/02/15 04:21:20;;;;;;;3.05;1.42;;;8.30;99.90;;;;;;5095215;28;20024;-83
2022/02/15 04:23:48;;;;;;;3.13;1.20;;;8.30;99.90;;;;;;5095175;28;20119;-83
2022/02/15 04:26:13;;;;;;;3.45;1.30;;;8.20;99.90;;;;;;5095147;28;20020;-83
2022/02/15 04:28:39;;;;;;;2.35;1.13;;;8.20;99.90;;;;;;5095027;28;20024;-83
2022/02/15 04:31:05;;;;;;;2.90;1.23;;;8.20;99.90;;;;;;5095050;28;20447;-82
2022/02/15 04:33:31;;;;;;;3.13;1.77;;;8.20;99.90;;;;;;5094930;28;20024;-83
2022/02/15 04:35:56;;;;;;;2.35;1.08;;;8.20;99.90;;;;;;5094950;28;20119;-83
2022/02/15 04:38:22;;;;;;;2.88;1.40;;;8.20;99.90;;;;;;5094726;28;20372;-82
2022/02/15 04:40:48;;;;;;;4.00;1.75;;;8.20;99.90;;;;;;5094874;28;20051;-82
2022/02/15 04:43:13;;;;;;;2.05;1.00;;;8.10;99.90;;;;;;5094814;28;20443;-82
2022/02/15 04:45:39;;;;;;;2.60;1.33;;;8.10;99.90;;;;;;5094746;28;20024;-82
2022/02/15 04:48:05;;;;;;;3.25;1.05;;;8.10;99.90;;;;;;5094728;28;20202;-83
2022/02/15 04:50:30;;;;;;;2.63;1.20;;;8.10;99.90;;;;;;5094735;28;20060;-83
2022/02/15 04:52:56;;;;;;;7.07;1.40;;;8.10;99.90;;;;;;5094580;28;20032;-83
2022/02/15 04:55:22;;;;;;;2.42;0.90;;;8.10;99.90;;;;;;5094562;28;20027;-83
2022/02/15 04:57:48;;;;;;;3.60;1.35;;;8.20;99.90;;;;;;5095799;28;20497;-82
2022/02/15 05:00:13;;;;;;;4.20;1.55;;;8.10;99.90;;;;;;5094478;28;20016;-83
2022/02/15 05:02:39;;;;;;;2.35;1.23;;;8.10;99.90;;;;;;5094403;28;20028;-83
2022/02/15 05:05:05;;;;;;;2.80;1.23;;;8.10;99.90;;;;;;5095641;28;20035;-83
2022/02/15 05:07:32;;;;;;;1.63;0.93;;;8.10;99.90;;;;;;5094377;28;20118;-82
2022/02/15 05:09:58;;;;;;;2.90;1.02;;;8.10;99.90;;;;;;5094230;28;20028;-83
2022/02/15 05:12:24;;;;;;;2.42;1.35;;;8.10;99.90;;;;;;5094239;28;20038;-82
2022/02/15 05:14:49;;;;;;;5.15;1.17;;;8.10;99.90;;;;;;5094251;28;20031;-82
2022/02/15 05:17:15;;;;;;;2.35;1.20;;;8.00;99.90;;;;;;5094160;28;20438;-83
2022/02/15 05:19:41;;;;;;;5.30;1.38;;;8.10;99.90;;;;;;5095414;28;20096;-82
2022/02/15 05:22:07;;;;;;;2.60;1.23;;;8.00;99.90;;;;;;5095384;28;20039;-83
2022/02/15 05:24:32;;;;;;;2.30;1.42;;;8.00;99.90;;;;;;5095334;28;20074;-83
2022/02/15 05:26:58;;;;;;;2.15;1.20;;;8.00;99.90;;;;;;5094309;28;20027;-83
2022/02/15 05:29:24;;;;;;;1.77;1.25;;;8.00;99.90;;;;;;5095224;28;20020;-83
2022/02/15 05:31:49;;;;;;;3.58;1.45;;;8.00;99.90;;;;;;5093793;28;20031;-83
2022/02/15 05:34:16;;;;;;;4.85;1.45;;;8.00;99.90;;;;;;5093822;28;20036;-83
2022/02/15 05:36:42;;;;;;;3.85;1.50;;;8.00;99.90;;;;;;5093743;28;20020;-82
2022/02/15 05:39:08;;;;;;;2.13;1.20;;;8.00;99.90;;;;;;5093639;28;20050;-82
2022/02/15 05:41:33;;;;;;;2.47;1.38;;;7.90;99.90;;;;;;5093725;28;20016;-82
2022/02/15 05:43:59;;;;;;;2.30;1.20;;;8.00;99.90;;;;;;5094995;28;20028;-82
2022/02/15 05:46:25;;;;;;;3.72;1.42;;;7.90;99.90;;;;;;5093606;28;20477;-83
2022/02/15 05:48:51;;;;;;;1.80;1.15;;;7.90;99.90;;;;;;5094857;28;20438;-82
2022/02/15 05:51:16;;;;;;;3.55;1.55;;;8.00;99.90;;;;;;5093799;28;20514;-82
2022/02/15 05:53:42;;;;;;;3.33;1.58;;;7.90;99.90;;;;;;5093349;28;20058;-83
2022/02/15 05:56:08;;;;;;;2.95;1.23;;;7.90;99.90;;;;;;5094518;28;20020;-83
2022/02/15 05:58:34;;;;;;;1.80;1.10;;;7.90;99.90;;;;;;5094654;28;20043;-83
2022/02/15 06:01:02;;;;;;;2.25;1.17;;;7.90;99.90;;;;;;5093312;28;20044;-84
2022/02/15 06:06:11;;;;;;;3.75;1.50;;;7.90;99.90;;;;;;5094783;28;20038;-83
2022/02/15 06:08:37;;;;;;;2.80;1.20;;;7.90;99.90;;;;;;5093521;28;20036;-83
2022/02/15 06:11:03;;;;;;;2.97;1.00;;;7.80;99.90;;;;;;5093165;28;20024;-83
2022/02/15 06:13:30;;;;;;;2.25;1.40;;;7.90;99.90;;;;;;5093049;28;20031;-83
2022/02/15 06:15:56;;;;;;;2.75;1.50;;;7.90;99.90;;;;;;5094363;28;20027;-83
2022/02/15 06:18:22;;;;;;;2.50;1.25;;;7.90;99.90;;;;;;5093061;28;20016;-83
2022/02/15 06:20:48;;;;;;;2.42;1.17;;;7.90;99.90;;;;;;5092494;28;20035;-83
2022/02/15 06:23:14;;;;;;;3.78;1.20;;;7.80;99.90;;;;;;5092891;28;20051;-83
2022/02/15 06:25:40;;;;;;;3.78;1.40;;;7.90;99.90;;;;;;5092856;28;20413;-83
2022/02/15 06:28:06;;;;;;;2.97;1.23;;;7.90;99.90;;;;;;5092793;28;20028;-83
2022/02/15 06:30:32;;;;;;;2.92;1.50;;;7.80;99.90;;;;;;5092755;28;20020;-83
2022/02/15 06:32:57;;;;;;;2.88;1.42;;;7.80;99.90;;;;;;5092662;28;20361;-83
2022/02/15 06:35:23;;;;;;;2.95;1.45;;;7.80;99.90;;;;;;5092729;28;20078;-83
2022/02/15 06:37:50;;;;;;;2.10;1.35;;;7.80;99.90;;;;;;5092475;28;20044;-83
2022/02/15 06:40:18;;;;;;;4.25;1.38;;;7.80;99.90;;;;;;5092625;28;20031;-83
2022/02/15 06:42:45;;;;;;;4.03;1.73;;;7.80;99.90;;;;;;5092617;28;20024;-83
2022/02/15 06:45:11;;;;;;;4.25;1.20;;;7.80;99.90;;;;;;5093799;28;20020;-82
2022/02/15 06:47:37;;;;;;;2.28;1.13;;;7.80;99.90;;;;;;5092503;28;20065;-83
2022/02/15 06:50:04;;;;;;;2.20;1.17;;;7.80;99.90;;;;;;5092478;28;20032;-82
2022/02/15 06:52:30;;;;;;;2.40;1.20;;;7.80;99.90;;;;;;5092380;28;20028;-83
2022/02/15 06:54:56;;;;;;;2.80;1.27;;;7.80;99.90;;;;;;5092355;28;20475;-83
2022/02/15 06:57:22;;;;;;;1.75;1.00;;;7.80;99.90;;;;;;5093976;28;20020;-83
2022/02/15 06:59:49;;;;;;;2.55;1.20;;;7.80;99.90;;;;;;5092333;28;20475;-83
2022/02/15 07:02:18;;;;;;;1.90;0.98;;;7.80;99.90;;;;;;5092269;28;20039;-83
2022/02/15 07:04:45;;;;;;;2.47;1.15;;;7.80;99.90;;;;;;5092272;28;20024;-83
2022/02/15 07:07:10;;;;;;;3.30;1.30;;;7.80;99.90;;;;;;5092126;28;20035;-83
2022/02/15 07:09:36;;;;;;;1.90;1.15;;;7.80;99.90;;;;;;5092189;28;20028;-83
2022/02/15 07:12:02;;;;;;;2.08;1.10;;;7.70;99.90;;;;;;5092392;28;20035;-83
2022/02/15 07:14:27;;;;;;;1.67;0.85;;;7.80;99.90;;;;;;5093400;28;20357;-83
2022/02/15 07:16:53;;;;;;;1.88;1.08;;;7.70;99.90;;;;;;5092081;28;20452;-83
2022/02/15 07:19:19;;;;;;;1.30;0.77;;;7.80;99.90;;;;;;5092056;28;20031;-83
2022/02/15 07:21:44;;;;;;;1.80;1.23;;;7.80;99.90;;;;;;5093298;28;20039;-83
2022/02/15 07:24:10;;;;;;;2.13;1.20;;;7.70;99.90;;;;;;5092014;28;20027;-83
2022/02/15 07:26:36;;;;;;;1.98;1.15;;;7.80;99.90;;;;;;5092008;28;20028;-83
2022/02/15 07:29:02;;;;;;;2.00;1.02;;;7.70;99.90;;;;;;5091939;28;20041;-82
2022/02/15 07:31:27;;;;;;;2.10;1.20;;;7.70;99.90;;;;;;5091811;28;20027;-83
2022/02/15 07:33:53;;;;;;;2.65;1.20;;;7.80;99.90;;;;;;5095169;28;20103;-83
2022/02/15 07:36:19;;;;;;;1.77;0.95;;;7.70;99.90;;;;;;5096406;28;20024;-83
2022/02/15 07:38:45;;;;;;;1.65;1.08;;;7.80;99.90;;;;;;5095954;28;20062;-83
2022/02/15 07:41:11;;;;;;;2.65;1.08;;;7.70;99.90;;;;;;5096027;28;20480;-84
2022/02/15 07:43:37;;;;;;;1.48;1.00;;;7.70;99.90;;;;;;5096057;28;20030;-83
2022/02/15 07:46:03;;;;;;;1.63;1.00;;;7.80;99.90;;;;;;5097263;28;20480;-83
2022/02/15 07:48:29;;;;;;;1.83;1.00;;;7.80;99.90;;;;;;5095883;28;20476;-83
2022/02/15 07:50:55;;;;;;;2.83;1.00;;;7.70;99.90;;;;;;5095859;28;20042;-83
2022/02/15 07:53:21;;;;;;;1.92;1.00;;;7.80;99.90;;;;;;5095762;28;20046;-83
2022/02/15 07:55:48;;;;;;;2.25;1.15;;;7.70;99.90;;;;;;5097056;28;20466;-82
2022/02/15 07:58:14;;;;;;;1.67;1.10;;;7.70;99.90;;;;;;5095758;28;20107;-83
2022/02/15 08:00:40;;;;;;;2.55;1.05;;;7.70;99.90;;;;;;5095757;28;20043;-82
2022/02/15 08:03:06;;;;;;;1.23;0.98;;;7.70;99.90;;;;;;5095996;28;20490;-83
2022/02/15 08:05:31;;;;;;;2.42;1.02;;;7.70;99.90;;;;;;5095548;28;20391;-83
2022/02/15 08:07:58;;;;;;;3.80;1.10;;;7.70;99.90;;;;;;5095555;28;20025;-83
2022/02/15 08:10:25;;;;;;;3.25;1.10;;;7.70;99.90;;;;;;5096100;28;20086;-83
2022/02/15 08:12:58;;;;;;;2.35;1.08;;;7.70;99.90;;;;;;5095399;28;20050;-83
2022/02/15 08:15:28;;;;;;;1.48;1.02;;;7.70;99.90;;;;;;5096767;28;20016;-83
2022/02/15 08:17:56;;;;;;;2.20;1.00;;;7.80;99.90;;;;;;5095418;28;20020;-82
2022/02/15 08:20:21;;;;;;;2.08;0.98;;;8.00;99.90;;;;;;5095350;28;20020;-83
2022/02/15 08:22:47;;;;;;;1.75;1.10;;;8.20;99.90;;;;;;5095293;28;20078;-82
2022/02/15 08:25:13;;;;;;;2.38;0.93;;;8.20;99.90;;;;;;5095265;28;20035;-82
2022/02/15 08:27:39;;;;;;;2.75;1.30;;;8.40;99.90;;;;;;5095225;28;20384;-82
2022/02/15 08:30:06;;;;;;;1.90;1.10;;;8.40;99.90;;;;;;5095090;28;20111;-83
2022/02/15 08:32:31;;;;;;;1.98;1.00;;;8.40;99.90;;;;;;5094984;28;20488;-83
2022/02/15 08:34:58;;;;;;;2.63;1.25;;;8.20;99.90;;;;;;5096116;28;20046;-82
2022/02/15 08:37:24;;;;;;;1.40;1.00;;;8.10;99.90;;;;;;5094818;28;20047;-83
2022/02/15 08:39:50;;;;;;;2.15;1.10;;;8.20;99.90;;;;;;5094970;28;20039;-83
2022/02/15 08:42:15;;;;;;;2.17;1.20;;;8.20;99.90;;;;;;5094907;28;20119;-83
2022/02/15 08:44:41;;;;;;;2.50;1.10;;;8.20;99.90;;;;;;5094426;28;20494;-83
2022/02/15 08:47:08;;;;;;;2.63;1.33;;;8.10;99.90;;;;;;5094795;28;20027;-82
2022/02/15 08:49:35;;;;;;;2.15;1.45;;;8.00;99.90;;;;;;5096062;28;20024;-83
2022/02/15 08:52:01;;;;;;;2.75;1.40;;;7.90;99.90;;;;;;5095924;28;20081;-83
2022/02/15 08:54:27;;;;;;;2.13;1.20;;;7.90;99.90;;;;;;5095969;28;20020;-83
2022/02/15 08:56:53;;;;;;;2.28;1.10;;;7.90;99.90;;;;;;5094617;28;20031;-83
2022/02/15 08:59:20;;;;;;;2.67;1.30;;;8.00;99.90;;;;;;5094574;28;20047;-82
2022/02/15 09:01:47;;;;;;;2.30;1.30;;;8.30;99.90;;;;;;5094558;28;20028;-82
2022/02/15 09:04:14;;;;;;;1.92;1.27;;;8.40;99.90;;;;;;5094485;28;20021;-82
2022/02/15 09:06:41;;;;;;;2.15;1.13;;;8.40;99.90;;;;;;5094363;28;20111;-83
2022/02/15 09:09:09;;;;;;;2.88;1.20;;;8.40;99.90;;;;;;5094407;28;20016;-82
2022/02/15 09:11:36;;;;;;;2.15;1.40;;;8.20;99.90;;;;;;5094268;28;20044;-83
2022/02/15 09:14:02;;;;;;;2.70;1.52;;;8.20;99.90;;;;;;5094269;28;20020;-83
2022/02/15 09:16:27;;;;;;;1.80;1.20;;;8.10;99.90;;;;;;5095518;28;20081;-83
2022/02/15 09:18:53;;;;;;;1.70;1.02;;;8.00;99.90;;;;;;5094196;28;20024;-83
2022/02/15 09:21:19;;;;;;;2.15;1.00;;;8.00;99.90;;;;;;5094186;28;20058;-83
2022/02/15 09:23:44;;;;;;;3.00;1.10;;;8.10;99.90;;;;;;5094365;28;20028;-83
2022/02/15 09:26:10;;;;;;;2.40;1.25;;;8.10;99.90;;;;;;5094106;28;20039;-83
2022/02/15 09:28:36;;;;;;;1.83;1.10;;;8.10;99.90;;;;;;5093993;28;20098;-83
2022/02/15 09:31:02;;;;;;;1.77;1.17;;;8.20;99.90;;;;;;5095230;28;20106;-83
2022/02/15 09:33:28;;;;;;;2.15;1.38;;;8.20;99.90;;;;;;5093909;28;20509;-83
2022/02/15 09:35:54;;;;;;;1.92;1.05;;;8.20;99.90;;;;;;5093903;28;20024;-83
2022/02/15 09:38:20;;;;;;;2.65;1.33;;;8.20;99.90;;;;;;5094943;28;20032;-82
2022/02/15 09:40:49;;;;;;;2.42;0.85;;;8.10;99.90;;;;;;5093792;28;20057;-83
2022/02/15 09:43:15;;;;;;;1.98;1.20;;;8.20;99.90;;;;;;5095038;28;20441;-82
2022/02/15 09:45:45;;;;;;;2.45;1.25;;;8.40;99.90;;;;;;5093644;28;20498;-83
2022/02/15 09:48:13;;;;;;;2.20;1.30;;;8.60;99.90;;;;;;5095242;28;20103;-83
2022/02/15 09:50:40;;;;;;;2.85;1.35;;;8.80;99.90;;;;;;5093636;28;20047;-82
2022/02/15 09:53:06;;;;;;;1.75;1.10;;;9.10;99.90;;;;;;5093525;28;20113;-83
2022/02/15 09:55:32;;;;;;;1.15;0.80;;;9.30;99.90;;;;;;5092976;28;20081;-83
2022/02/15 09:57:58;;;;;;;1.20;0.88;;;9.40;99.90;;;;;;5093148;28;20024;-82
2022/02/15 10:00:24;;;;;;;2.05;1.00;;;9.40;99.90;;;;;;5093446;28;20032;-84
2022/02/15 10:02:50;;;;;;;1.63;0.95;;;9.60;99.90;;;;;;5093436;28;20032;-83
2022/02/15 10:05:18;;;;;;;1.65;1.00;;;9.70;99.90;;;;;;5093296;28;20121;-84
2022/02/15 10:07:46;;;;;;;2.30;1.10;;;9.90;99.90;;;;;;5094699;28;20048;-83
2022/02/15 10:10:11;;;;;;;1.58;0.98;;;9.80;99.90;;;;;;5093278;28;20574;-83
2022/02/15 10:12:37;;;;;;;1.60;1.00;;;9.70;99.90;;;;;;5093483;28;20114;-83
2022/02/15 10:15:08;;;;;;;1.42;0.88;;;9.70;99.90;;;;;;5093109;28;20016;-83
2022/02/15 10:17:37;;;;;;;1.55;1.00;;;9.80;99.90;;;;;;5093131;28;20487;-83
2022/02/15 10:20:03;;;;;;;3.00;1.13;;;9.80;99.90;;;;;;5093013;28;20048;-83
2022/02/15 10:22:29;;;;;;;2.17;1.27;;;9.60;99.90;;;;;;5093003;28;20035;-83
2022/02/15 10:25:02;;;;;;;2.15;1.20;;;9.40;99.90;;;;;;5094260;28;20452;-83
2022/02/15 10:27:30;;;;;;;3.20;1.50;;;9.30;99.90;;;;;;5092992;28;20024;-83
2022/02/15 10:29:57;;;;;;;2.75;1.50;;;9.10;99.90;;;;;;5092884;28;20024;-82
2022/02/15 10:32:24;;;;;;;2.33;1.30;;;8.90;99.90;;;;;;5092758;28;20031;-82
2022/02/15 10:34:58;;;;;;;2.95;1.60;;;8.90;99.90;;;;;;5092759;28;20028;-82
2022/02/15 10:37:30;;;;;;;3.10;1.60;;;8.80;99.90;;;;;;5092665;28;20115;-82
2022/02/15 10:40:06;;;;;;;4.13;1.55;;;8.70;99.90;;;;;;5092738;28;20105;-83
2022/02/15 10:42:32;;;;;;;3.67;1.50;;;8.60;99.90;;;;;;5093165;28;20085;-83
2022/02/15 10:45:06;;;;;;;2.20;1.42;;;8.60;99.90;;;;;;5093896;28;20384;-83
2022/02/15 10:47:35;;;;;;;2.70;1.70;;;8.50;99.90;;;;;;5092916;28;20442;-83
2022/02/15 10:50:14;;;;;;;3.35;1.50;;;8.40;99.90;;;;;;5092479;28;20381;-82
2022/02/15 10:52:40;;;;;;;1.70;1.30;;;8.40;99.90;;;;;;5092449;28;20063;-82
2022/02/15 10:55:07;;;;;;;2.08;1.17;;;8.30;99.90;;;;;;5092376;28;20059;-82
2022/02/15 10:57:34;;;;;;;3.65;1.25;;;8.30;99.90;;;;;;5092585;28;20429;-82
2022/02/15 11:00:05;;;;;;;3.92;1.60;;;8.20;99.90;;;;;;5092316;28;20016;-82
2022/02/15 11:02:31;;;;;;;2.80;1.40;;;8.20;99.90;;;;;;5092312;28;20115;-82
2022/02/15 11:05:01;;;;;;;2.10;1.30;;;8.10;99.90;;;;;;5092281;28;20063;-82
2022/02/15 11:07:32;;;;;;;2.70;1.60;;;8.10;99.90;;;;;;5092061;28;20031;-82
2022/02/15 11:10:16;;;;;;;4.28;1.50;;;8.10;99.90;;;;;;5092224;28;20020;-82
2022/02/15 11:12:46;;;;;;;2.73;1.47;;;8.00;99.90;;;;;;5092114;28;20024;-82
2022/02/15 11:15:12;;;;;;;3.72;1.58;;;8.10;99.90;;;;;;5092109;28;20762;-82
2022/02/15 11:17:57;;;;;;;3.58;1.73;;;8.10;99.90;;;;;;5092060;28;20069;-82
2022/02/15 11:20:29;;;;;;;4.22;1.50;;;8.10;99.90;;;;;;5093564;28;20020;-82
2022/02/15 11:22:59;;;;;;;2.75;1.65;;;8.10;99.90;;;;;;5093647;28;20055;-83
2022/02/15 11:25:37;;;;;;;3.55;1.75;;;8.10;99.90;;;;;;5092079;28;20032;-82
2022/02/15 11:28:14;;;;;;;3.90;1.88;;;8.10;99.90;;;;;;5091930;28;20059;-82
2022/02/15 11:30:44;;;;;;;2.80;1.75;;;8.10;99.90;;;;;;5092035;28;20059;-82
2022/02/15 11:33:10;;;;;;;2.30;1.48;;;8.10;99.90;;;;;;5091865;28;20434;-82
2022/02/15 11:35:36;;;;;;;3.65;1.20;;;8.20;99.90;;;;;;5091888;28;20028;-82
2022/02/15 11:38:12;;;;;;;2.70;1.58;;;8.20;99.90;;;;;;5091949;28;20085;-82
2022/02/15 11:40:38;;;;;;;5.07;1.45;;;8.10;99.90;;;;;;5091931;28;20479;-83
2022/02/15 11:43:07;;;;;;;2.28;1.58;;;8.10;99.90;;;;;;5091862;28;20085;-82
2022/02/15 11:45:34;;;;;;;1.95;1.42;;;8.10;99.90;;;;;;5091811;28;20024;-82
2022/02/15 11:48:06;;;;;;;2.65;1.48;;;8.10;99.90;;;;;;5091814;28;20024;-82
2022/02/15 11:50:42;;;;;;;2.38;1.40;;;8.00;99.90;;;;;;5093079;28;20028;-82
2022/02/15 11:53:09;;;;;;;3.50;1.40;;;8.10;99.90;;;;;;5092906;28;20069;-83
2022/02/15 11:55:38;;;;;;;3.30;1.52;;;8.10;99.90;;;;;;5091740;28;20021;-82
2022/02/15 11:58:08;;;;;;;2.85;1.40;;;8.20;99.90;;;;;;5091627;28;20028;-82
2022/02/15 12:00:36;;;;;;;1.80;1.05;;;8.20;99.90;;;;;;5091705;28;20062;-82
2022/02/15 12:03:03;;;;;;;2.40;1.23;;;8.20;99.90;;;;;;5091622;28;20081;-83
2022/02/15 12:05:30;;;;;;;1.98;1.20;;;8.20;99.90;;;;;;5091537;28;20031;-82
2022/02/15 12:07:57;;;;;;;1.88;1.23;;;8.20;99.90;;;;;;5091664;28;20090;-83
2022/02/15 12:10:27;;;;;;;2.53;1.48;;;8.20;99.90;;;;;;5091787;28;20047;-83
2022/02/15 12:12:53;;;;;;;3.17;1.60;;;8.20;99.90;;;;;;5091498;28;20039;-83
2022/02/15 12:15:19;;;;;;;2.28;1.30;;;8.20;99.90;;;;;;5091510;28;20020;-82
2022/02/15 12:17:46;;;;;;;2.42;1.50;;;8.10;99.90;;;;;;5091523;28;20020;-82
2022/02/15 12:20:17;;;;;;;3.03;1.52;;;8.10;99.90;;;;;;5093714;28;20391;-82
2022/02/15 12:22:54;;;;;;;2.25;1.50;;;8.10;99.90;;;;;;5096624;28;20020;-82
2022/02/15 12:25:21;;;;;;;2.45;1.67;;;8.10;99.90;;;;;;5095272;28;20031;-82
2022/02/15 12:27:47;;;;;;;3.25;1.70;;;8.00;99.90;;;;;;5095161;28;20039;-83
2022/02/15 12:30:15;;;;;;;2.55;1.60;;;8.10;99.90;;;;;;5095156;28;20043;-82
2022/02/15 12:32:44;;;;;;;2.78;1.40;;;8.10;99.90;;;;;;5095018;28;20028;-82
2022/02/15 12:35:11;;;;;;;3.22;1.35;;;8.10;99.90;;;;;;5096317;28;20103;-82
2022/02/15 12:37:37;;;;;;;2.13;1.42;;;8.10;99.90;;;;;;5094781;28;20047;-82
2022/02/15 12:40:07;;;;;;;2.17;1.50;;;8.10;99.90;;;;;;5094952;28;20035;-83
2022/02/15 12:42:34;;;;;;;1.42;1.08;;;8.10;99.90;;;;;;5095786;28;20039;-83
2022/02/15 12:45:06;;;;;;;1.85;1.33;;;8.30;99.90;;;;;;5094907;28;20498;-83
2022/02/15 12:47:35;;;;;;;2.15;1.40;;;8.40;99.90;;;;;;5094848;28;20028;-83
2022/02/15 12:50:01;;;;;;;1.63;1.33;;;8.50;99.90;;;;;;5094758;28;20028;-83
2022/02/15 12:52:29;;;;;;;1.85;1.25;;;8.50;99.90;;;;;;5094711;28;20494;-83
2022/02/15 12:54:57;;;;;;;2.45;1.35;;;8.60;99.90;;;;;;5094721;28;20024;-83
2022/02/15 12:57:23;;;;;;;3.85;1.63;;;8.70;99.90;;;;;;5094673;28;20495;-83
2022/02/15 12:59:56;;;;;;;5.70;1.60;;;8.70;99.90;;;;;;5094568;28;20020;-84
2022/02/15 13:02:25;;;;;;;2.45;1.40;;;8.90;99.90;;;;;;5094554;28;20024;-82